Home > Products > Valid Products > MTR

000
SAUS45 KFGZ 250358
MTRFLG
METAR KFLG 250357Z 00000KT 10SM CLR 07/M02 A3038 RMK AO2 SLP217
T00671017





000
SAUS45 KFGZ 250258
MTRFLG
METAR KFLG 250257Z 00000KT 10SM CLR 08/M02 A3037 RMK AO2 SLP233
T00831017 53008





000
SAUS45 KFGZ 250158
MTRFLG
METAR KFLG 250157Z AUTO 00000KT 10SM CLR 10/M02 A3036 RMK AO2 SLP241
T01001017 TSNO





000
SAUS45 KFGZ 250058
MTRFLG
METAR KFLG 250057Z 00000KT 10SM CLR 14/M01 A3034 RMK AO2 SLP223
T01441011





000
SAUS45 KFGZ 242358
MTRFLG
METAR KFLG 242357Z 21007KT 10SM CLR 19/M04 A3034 RMK AO2 SLP210
T01941044 10217 20194 58004





000
SAUS45 KFGZ 242258
MTRFLG
METAR KFLG 242257Z 21010KT 10SM CLR 21/M04 A3035 RMK AO2 SLP208
T02111039





000
SAUS45 KFGZ 242158
MTRFLG
METAR KFLG 242157Z 23010KT 10SM CLR 22/M04 A3035 RMK AO2 SLP206
T02171044





000
SAUS45 KFGZ 242058
MTRFLG
METAR KFLG 242057Z VRB05KT 10SM CLR 22/M04 A3035 RMK AO2 SLP207
T02171039 58018





000
SAUS45 KFGZ 241958
MTRFLG
METAR KFLG 241957Z 23009KT 10SM CLR 22/M02 A3037 RMK AO2 SLP212
T02171022





000
SAUS45 KFGZ 241958
MTRFLG
METAR KFLG 241957Z 23009KT 10SM CLR 22/M02 A3037 RMK AO2 SLP212
T02171022





000
SAUS45 KFGZ 241858
MTRFLG
METAR KFLG 241857Z 20007KT 10SM CLR 20/M03 A3040 RMK AO2 SLP224
T02001033





000
SAUS45 KFGZ 241758
MTRFLG
METAR KFLG 241757Z 21008KT 10SM CLR 19/M04 A3041 RMK AO2 SLP230
T01941039 10194 20006 50004





000
SAUS45 KFGZ 241658
MTRFLG
METAR KFLG 241657Z VRB05KT 10SM CLR 18/02 A3042 RMK AO2 SLP234
T01780022





000
SAUS45 KFGZ 241558
MTRFLG
METAR KFLG 241557Z 00000KT 10SM CLR 16/04 A3041 RMK AO2 SLP231
T01610044





000
SAUS45 KFGZ 241458
MTRFLG
METAR KFLG 241457Z 00000KT 10SM CLR 07/02 A3040 RMK AO2 SLP247
T00670022 53010





000
SAUS45 KFGZ 241358
MTRFLG
METAR KFLG 241357Z 00000KT 10SM CLR 01/M01 A3038 RMK AO2 SLP248
T00061011





000
SAUS45 KFGZ 241258
MTRFLG
METAR KFLG 241257Z AUTO 00000KT 10SM CLR 01/M02 A3037 RMK AO2 SLP235
T00061017 TSNO





000
SAUS45 KFGZ 241158
MTRFLG
METAR KFLG 241157Z AUTO 00000KT 10SM CLR 01/M02 A3036 RMK AO2 SLP225
T00061017 10039 20006 55001 TSNO





000
SAUS45 KFGZ 241058
MTRFLG
METAR KFLG 241057Z AUTO 00000KT 10SM CLR 01/M01 A3036 RMK AO2 SLP214
T00111011 TSNO





000
SAUS45 KFGZ 241058
MTRFLG
METAR KFLG 241057Z AUTO 00000KT 10SM CLR 01/M01 A3036 RMK AO2 SLP214
T00111011 TSNO





000
SAUS45 KFGZ 240959
MTRFLG
METAR KFLG 240957Z AUTO 00000KT 10SM CLR 01/M02 A3035 RMK AO2 SLP211
T00111017 TSNO





000
SAUS45 KFGZ 240959
MTRFLG
METAR KFLG 240957Z AUTO 00000KT 10SM CLR 01/M02 A3035 RMK AO2 SLP211
T00111017 TSNO





000
SAUS45 KFGZ 240858
MTRFLG
METAR KFLG 240857Z AUTO 00000KT 9SM CLR 02/M01 A3037 RMK AO2 SLP215
T00171011 51002 TSNO





000
SAUS45 KFGZ 240758
MTRFLG
METAR KFLG 240757Z AUTO 00000KT 9SM CLR 03/M01 A3036 RMK AO2 SLP212
T00281011 TSNO





000
SAUS45 KFGZ 240658
MTRFLG
METAR KFLG 240657Z AUTO 00000KT 10SM CLR 03/M01 A3036 RMK AO2 SLP212
T00331006 402110000 TSNO





000
SAUS45 KFGZ 240558
MTRFLG
METAR KFLG 240557Z AUTO 00000KT 10SM CLR 03/M01 A3036 RMK AO2 SLP210
T00331006 10172 20033 50002 TSNO





000
SAUS45 KFGZ 240458
MTRFLG
METAR KFLG 240457Z AUTO 00000KT 10SM CLR 04/00 A3036 RMK AO2 SLP214
T00440000 TSNO





000
SAUS45 KFGZ 240458
MTRFLG
METAR KFLG 240457Z AUTO 00000KT 10SM CLR 04/00 A3036 RMK AO2 SLP214
T00440000 TSNO





000
SAUS45 KFGZ 240358
MTRFLG
METAR KFLG 240357Z AUTO 00000KT 10SM CLR 06/01 A3036 RMK AO2 SLP215
T00610006 TSNO





000
SAUS45 KFGZ 240358
MTRFLG
METAR KFLG 240357Z AUTO 00000KT 10SM CLR 06/01 A3036 RMK AO2 SLP215
T00610006 TSNO





000
SAUS45 KFGZ 240258
MTRFLG
METAR KFLG 240257Z AUTO 00000KT 10SM CLR 08/01 A3035 RMK AO2 SLP230
T00780011 51011 TSNO





000
SAUS45 KFGZ 240258
MTRFLG
METAR KFLG 240257Z AUTO 00000KT 10SM CLR 08/01 A3035 RMK AO2 SLP230
T00780011 51011 TSNO





000
SAUS45 KFGZ 240158
MTRFLG
METAR KFLG 240157Z 00000KT 10SM CLR 10/01 A3034 RMK AO2 SLP235
T01000011





000
SAUS45 KFGZ 240158
MTRFLG
METAR KFLG 240157Z 00000KT 10SM CLR 10/01 A3034 RMK AO2 SLP235
T01000011





000
SAUS45 KFGZ 240058
MTRFLG
METAR KFLG 240057Z 00000KT 10SM CLR 13/01 A3033 RMK AO2 SLP221
T01330011





000
SAUS45 KFGZ 232358
MTRFLG
METAR KFLG 232357Z 22006KT 10SM CLR 17/00 A3031 RMK AO2 SLP207
T01720000 10211 20172 53000





000
SAUS45 KFGZ 232258
MTRFLG
METAR KFLG 232257Z 20009KT 10SM CLR 19/M01 A3031 RMK AO2 SLP197
T01941011





000
SAUS45 KFGZ 232158
MTRFLG
METAR KFLG 232157Z 20009KT 10SM CLR 21/00 A3031 RMK AO2 SLP194
T02060000





000
SAUS45 KFGZ 232058
MTRFLG
METAR KFLG 232057Z 19005G15KT 10SM CLR 20/01 A3031 RMK AO2 SLP195
T02000006 58015





000
SAUS45 KFGZ 231958
MTRFLG
METAR KFLG 231957Z VRB05KT 10SM CLR 21/00 A3032 RMK AO2 SLP198
T02060000





000
SAUS45 KFGZ 231958
MTRFLG
METAR KFLG 231957Z VRB05KT 10SM CLR 21/00 A3032 RMK AO2 SLP198
T02060000





000
SAUS45 KFGZ 231858
MTRFLG
METAR KFLG 231857Z 17007KT 10SM CLR 19/00 A3036 RMK AO2 SLP212
T01940000





000
SAUS45 KFGZ 231858
MTRFLG
METAR KFLG 231857Z 17007KT 10SM CLR 19/00 A3036 RMK AO2 SLP212
T01940000





000
SAUS45 KFGZ 231758
MTRFLG
METAR KFLG 231757Z VRB03KT 10SM CLR 19/00 A3036 RMK AO2 SLP212
T01940000 10194 20000 50003





000
SAUS45 KFGZ 231758
MTRFLG
METAR KFLG 231757Z VRB03KT 10SM CLR 19/00 A3036 RMK AO2 SLP212
T01940000 10194 20000 50003





000
SAUS45 KFGZ 231658
MTRFLG
METAR KFLG 231657Z 18003KT 10SM CLR 17/01 A3037 RMK AO2 SLP215
T01720011





000
SAUS45 KFGZ 231658
MTRFLG
METAR KFLG 231657Z 18003KT 10SM CLR 17/01 A3037 RMK AO2 SLP215
T01720011





000
SAUS45 KFGZ 231558
MTRFLG
METAR KFLG 231557Z 00000KT 10SM CLR 14/03 A3037 RMK AO2 SLP220
T01440028





000
SAUS45 KFGZ 231458
MTRFLG
METAR KFLG 231457Z 00000KT 10SM CLR 06/01 A3035 RMK AO2 SLP233
T00610011 53012





000
SAUS45 KFGZ 231458
MTRFLG
METAR KFLG 231457Z 00000KT 10SM CLR 06/01 A3035 RMK AO2 SLP233
T00610011 53012





000
SAUS45 KFGZ 231358
MTRFLG
METAR KFLG 231357Z 00000KT 10SM CLR 01/M02 A3032 RMK AO2 SLP232
T00061022





000
SAUS45 KFGZ 231258
MTRFLG
METAR KFLG 231257Z AUTO 00000KT 8SM CLR 01/M02 A3031 RMK AO2 SLP214
T00061017 TSNO





000
SAUS45 KFGZ 231158
MTRFLG
METAR KFLG 231157Z AUTO 00000KT 5SM BR CLR 01/M02 A3031 RMK AO2
SLP206 7//// T00061017 10039 20006 55002 TSNO





000
SAUS45 KFGZ 231058
MTRFLG
METAR KFLG 231057Z AUTO 00000KT 5SM HZ CLR 01/M02 A3030 RMK AO2
SLP201 T00111017 TSNO





000
SAUS45 KFGZ 230958
MTRFLG
METAR KFLG 230957Z AUTO 00000KT 5SM HZ CLR 01/M02 A3030 RMK AO2
SLP198 T00111017 TSNO





000
SAUS45 KFGZ 230958
MTRFLG
METAR KFLG 230957Z AUTO 00000KT 5SM HZ CLR 01/M02 A3030 RMK AO2
SLP198 T00111017 TSNO





000
SAUS45 KFGZ 230858
MTRFLG
METAR KFLG 230857Z AUTO 00000KT 8SM CLR 02/M02 A3032 RMK AO2 SLP203
T00171017 53001 TSNO





000
SAUS45 KFGZ 230758
MTRFLG
METAR KFLG 230757Z AUTO 00000KT 9SM CLR 03/M01 A3031 RMK AO2 SLP196
T00281011 TSNO





000
SAUS45 KFGZ 230658
MTRFLG
METAR KFLG 230657Z AUTO 00000KT 9SM CLR 02/M02 A3030 RMK AO2 SLP193
T00221017 401890017 TSNO





000
SAUS45 KFGZ 230558
MTRFLG
METAR KFLG 230557Z AUTO 00000KT 10SM CLR 04/M01 A3031 RMK AO2 SLP201
T00391011 10167 20033 51006 TSNO





000
SAUS45 KFGZ 230458
MTRFLG
METAR KFLG 230457Z AUTO 00000KT 10SM CLR 04/M01 A3030 RMK AO2 SLP198
T00441006 TSNO





000
SAUS45 KFGZ 230458
MTRFLG
METAR KFLG 230457Z AUTO 00000KT 10SM CLR 04/M01 A3030 RMK AO2 SLP198
T00441006 TSNO





000
SAUS45 KFGZ 230358
MTRFLG
METAR KFLG 230357Z AUTO 00000KT 10SM CLR 06/00 A3030 RMK AO2 SLP202
T00560000 TSNO





000
SAUS45 KFGZ 230358
MTRFLG
METAR KFLG 230357Z AUTO 00000KT 10SM CLR 06/00 A3030 RMK AO2 SLP202
T00560000 TSNO





000
SAUS45 KFGZ 230258
MTRFLG
METAR KFLG 230257Z AUTO 00000KT 10SM CLR 07/01 A3029 RMK AO2 SLP213
T00720011 51014 TSNO





000
SAUS45 KFGZ 230158
MTRFLG
METAR KFLG 230157Z 00000KT 10SM CLR 09/01 A3028 RMK AO2 SLP213
T00940011





000
SAUS45 KFGZ 230158
MTRFLG
METAR KFLG 230157Z 00000KT 10SM CLR 09/01 A3028 RMK AO2 SLP213
T00940011





000
SAUS45 KFGZ 230058
MTRFLG
METAR KFLG 230057Z 22004KT 10SM CLR 14/02 A3026 RMK AO2 SLP193
T01390017





000
SAUS45 KFGZ 230058
MTRFLG
METAR KFLG 230057Z 22004KT 10SM CLR 14/02 A3026 RMK AO2 SLP193
T01390017





000
SAUS45 KFGZ 222358
MTRFLG
METAR KFLG 222357Z 20009KT 10SM CLR 17/02 A3024 RMK AO2 SLP176
T01670017 10189 20156 52004





000
SAUS45 KFGZ 222358
MTRFLG
METAR KFLG 222357Z 20009KT 10SM CLR 17/02 A3024 RMK AO2 SLP176
T01670017 10189 20156 52004





000
SAUS45 KFGZ 222258
MTRFLG
METAR KFLG 222257Z 20011KT 10SM FEW065 18/03 A3023 RMK AO2 SLP171
T01780028





000
SAUS45 KFGZ 222258
MTRFLG
METAR KFLG 222257Z 20011KT 10SM FEW065 18/03 A3023 RMK AO2 SLP171
T01780028





000
SAUS45 KFGZ 222159
MTRFLG
METAR KFLG 222157Z 20010G15KT 10SM CLR 18/02 A3023 RMK AO2 SLP170
T01830022





000
SAUS45 KFGZ 222059
MTRFLG
METAR KFLG 222057Z AUTO 19012KT 150V220 10SM FEW065 18/03 A3023 RMK
AO2 SLP166 T01830033 56012 TSNO





000
SAUS45 KFGZ 221958
MTRFLG
METAR KFLG 221957Z AUTO 23006KT 10SM CLR 18/03 A3024 RMK AO2 SLP170
T01830028 TSNO





000
SAUS45 KFGZ 221858
MTRFLG
METAR KFLG 221857Z AUTO 15007KT 10SM CLR 18/02 A3026 RMK AO2 SLP173
T01830022 TSNO





000
SAUS45 KFGZ 221758
MTRFLG
METAR KFLG 221757Z AUTO VRB03KT 10SM CLR 16/03 A3027 RMK AO2 SLP181
6//// T01560028 10161 20017 TSNO





000
SAUS45 KFGZ 221758
MTRFLG
METAR KFLG 221757Z AUTO VRB03KT 10SM CLR 16/03 A3027 RMK AO2 SLP181
6//// T01560028 10161 20017 TSNO





000
SAUS45 KFGZ 221658
MTRFLG
METAR KFLG 221657Z AUTO 00000KT 10SM CLR 15/04 A3027 RMK AO2 SLP178
T01500044 TSNO





000
SAUS45 KFGZ 221658
MTRFLG
METAR KFLG 221657Z AUTO 00000KT 10SM CLR 15/04 A3027 RMK AO2 SLP178
T01500044 TSNO





000
SAUS45 KFGZ 221558
MTRFLG
METAR KFLG 221557Z 05003KT 10SM CLR 13/05 A3027 RMK AO2 SLP180
T01280050





000
SAUS45 KFGZ 221558
MTRFLG
METAR KFLG 221557Z 05003KT 10SM CLR 13/05 A3027 RMK AO2 SLP180
T01280050





000
SAUS45 KFGZ 221458
MTRFLG
METAR KFLG 221457Z 00000KT 10SM CLR 07/04 A3025 RMK AO2 SLP192 60000
T00720039 53018





000
SAUS45 KFGZ 221358
MTRFLG
METAR KFLG 221357Z 00000KT 10SM CLR 02/00 A3022 RMK AO2 SLP192
T00170000





000
SAUS45 KFGZ 221258
MTRFLG
METAR KFLG 221257Z AUTO 00000KT 10SM CLR 02/01 A3020 RMK AO2
SNB01E12 SLP172 P0000 T00220006 TSNO





000
SAUS45 KFGZ 221158
MTRFLG
METAR KFLG 221157Z AUTO 00000KT 10SM CLR 02/01 A3019 RMK AO2 SLP160
T00220006 10061 20022 53003 TSNO





000
SAUS45 KFGZ 221058
MTRFLG
METAR KFLG 221057Z AUTO 00000KT 10SM CLR 03/01 A3019 RMK AO2 SLP155
T00330011 TSNO





000
SAUS45 KFGZ 221058
MTRFLG
METAR KFLG 221057Z AUTO 00000KT 10SM CLR 03/01 A3019 RMK AO2 SLP155
T00330011 TSNO





000
SAUS45 KFGZ 220958
MTRFLG
METAR KFLG 220957Z AUTO 00000KT 10SM CLR 03/01 A3018 RMK AO2 SLP151
T00280011 TSNO





000
SAUS45 KFGZ 220958
MTRFLG
METAR KFLG 220957Z AUTO 00000KT 10SM CLR 03/01 A3018 RMK AO2 SLP151
T00280011 TSNO





000
SAUS45 KFGZ 220858
MTRFLG
METAR KFLG 220857Z AUTO 00000KT 10SM CLR 03/01 A3018 RMK AO2 SLP148
T00330011 58001 TSNO





000
SAUS45 KFGZ 220758
MTRFLG
METAR KFLG 220757Z AUTO 00000KT 10SM CLR 04/02 A3018 RMK AO2 SLP151
T00440022 TSNO





000
SAUS45 KFGZ 220658
MTRFLG
METAR KFLG 220657Z AUTO 00000KT 10SM CLR 04/03 A3019 RMK AO2 SLP154
T00440028 401830006 TSNO





000
SAUS45 KFGZ 220558
MTRFLG
METAR KFLG 220557Z AUTO 00000KT 10SM CLR 06/03 A3018 RMK AO2 SLP149
T00610028 10161 20050 53008 TSNO





000
SAUS45 KFGZ 220558
MTRFLG
METAR KFLG 220557Z AUTO 00000KT 10SM CLR 06/03 A3018 RMK AO2 SLP149
T00610028 10161 20050 53008 TSNO





000
SAUS45 KFGZ 220458
MTRFLG
METAR KFLG 220457Z AUTO 00000KT 10SM CLR 07/03 A3017 RMK AO2 SLP147
T00670028 TSNO





000
SAUS45 KFGZ 220458
MTRFLG
METAR KFLG 220457Z AUTO 00000KT 10SM CLR 07/03 A3017 RMK AO2 SLP147
T00670028 TSNO





    US Dept of Commerce
    National Oceanic and Atmospheric Administration
    National Weather Service
    1325 East West Highway
    Silver Spring, MD 20910
    Page Author: NWS Internet Services Team
Disclaimer
Information Quality
Credits
Glossary
Privacy Policy
Freedom of Information Act (FOIA)
About Us
Career Opportunities